Alges — CSPH — position and weather

sailwx.info

Track history (hours):
 
Tides and Currents Weather Stations Pressure Air Temp Water Temp Dewpoint Dewpoint Depression Visibility Wind Speed Wind Dir Waves Ship Positions

Alges

Last reported at 2016-Aug-05 18:17 UTC. Time now 2016-Aug-30 15:05 UTC.
Position N 38°41' W 009°09'.
Warning: this ship's position is 24 days out of date.

Length 45 m; draft 24.8 m.

Type: Passenger vessel. MMSI: 263700008.

Date/timePositionNaut miles runAvg speedWind from/ knotsBaromVisibWave heightAir tempDewpointWater temp
2016-Aug-05 18:17N 38°41' W 009°09'1 0.7
2016-Aug-05 16:31N 38°42' W 009°09'4 3.4
2016-Aug-05 15:25N 38°39' W 009°06'0 0.4
2016-Aug-05 14:33N 38°39' W 009°06'0 0.0
2016-Aug-05 12:33N 38°39' W 009°06'0 0.1
2016-Aug-05 09:20N 38°39' W 009°06'3 1.5
2016-Aug-05 07:25N 38°42' W 009°08'3 0.3
2016-Aug-04 20:27N 38°39' W 009°06'0 0.0
2016-Aug-04 19:33N 38°39' W 009°06'0 0.0
2016-Aug-04 17:18N 38°39' W 009°06'0 0.0
2016-Aug-04 16:32N 38°39' W 009°06'0 0.0
2016-Aug-04 15:32N 38°39' W 009°06'0 0.0
2016-Aug-03 22:33N 38°39' W 009°06'0 0.0
2016-Aug-03 21:31N 38°39' W 009°06'0 0.5
2016-Aug-03 20:33N 38°39' W 009°06'0 0.4
2016-Aug-03 19:25N 38°39' W 009°06'4 4.4
2016-Aug-03 18:33N 38°42' W 009°09'4 3.0
2016-Aug-03 17:17N 38°39' W 009°06'0 0.0
2016-Aug-02 22:31N 38°39' W 009°06'0 0.4
2016-Aug-02 21:18N 38°39' W 009°06'0 0.0
2016-Aug-02 19:33N 38°39' W 009°06'2 0.2
2016-Aug-02 08:20N 38°41' W 009°05'4 1.0
2016-Aug-02 04:34N 38°42' W 009°00'0 0.0
2016-Aug-01 21:33N 38°42' W 009°00'1 1.0
2016-Aug-01 20:29N 38°41' W 009°02'6 0.5
2016-Aug-01 09:08N 38°41' W 009°09'610.8
2016-Aug-01 08:33N 38°42' W 009°01'0 0.2
2016-Aug-01 07:34N 38°42' W 009°01'  
2016-Jul-29 16:04N 38°42' W 009°01'0 0.1
2016-Jul-29 15:04N 38°42' W 009°00'1 0.5
2016-Jul-29 13:22N 38°41' W 009°01'2 0.9
2016-Jul-29 11:14N 38°41' W 009°04'  
Track history (hours):
 
Tides and Currents Weather Stations Pressure Air Temp Water Temp Dewpoint Dewpoint Depression Visibility Wind Speed Wind Dir Waves Ship Positions

Alges

Last reported at 2016-Aug-05 18:17 UTC. Time now 2016-Aug-30 15:05 UTC.
Position N 38°41' W 009°09'.
Warning: this ship's position is 24 days out of date.

Length 45 m; draft 24.8 m.

Type: Passenger vessel. MMSI: 263700008.

Date/timePositionNaut miles runAvg speedWind from/ knotsBaromVisibWave heightAir tempDewpointWater temp
2016-Aug-05 18:17N 38°41' W 009°09'1 0.7
2016-Aug-05 16:31N 38°42' W 009°09'4 3.4
2016-Aug-05 15:25N 38°39' W 009°06'0 0.4
2016-Aug-05 14:33N 38°39' W 009°06'0 0.0
2016-Aug-05 12:33N 38°39' W 009°06'0 0.1
2016-Aug-05 09:20N 38°39' W 009°06'3 1.5
2016-Aug-05 07:25N 38°42' W 009°08'3 0.3
2016-Aug-04 20:27N 38°39' W 009°06'0 0.0
2016-Aug-04 19:33N 38°39' W 009°06'0 0.0
2016-Aug-04 17:18N 38°39' W 009°06'0 0.0
2016-Aug-04 16:32N 38°39' W 009°06'0 0.0
2016-Aug-04 15:32N 38°39' W 009°06'0 0.0
2016-Aug-03 22:33N 38°39' W 009°06'0 0.0
2016-Aug-03 21:31N 38°39' W 009°06'0 0.5
2016-Aug-03 20:33N 38°39' W 009°06'0 0.4
2016-Aug-03 19:25N 38°39' W 009°06'4 4.4
2016-Aug-03 18:33N 38°42' W 009°09'4 3.0
2016-Aug-03 17:17N 38°39' W 009°06'0 0.0
2016-Aug-02 22:31N 38°39' W 009°06'0 0.4
2016-Aug-02 21:18N 38°39' W 009°06'0 0.0
2016-Aug-02 19:33N 38°39' W 009°06'2 0.2
2016-Aug-02 08:20N 38°41' W 009°05'4 1.0
2016-Aug-02 04:34N 38°42' W 009°00'0 0.0
2016-Aug-01 21:33N 38°42' W 009°00'1 1.0
2016-Aug-01 20:29N 38°41' W 009°02'6 0.5
2016-Aug-01 09:08N 38°41' W 009°09'610.8
2016-Aug-01 08:33N 38°42' W 009°01'0 0.2
2016-Aug-01 07:34N 38°42' W 009°01'  
2016-Jul-29 16:04N 38°42' W 009°01'0 0.1
2016-Jul-29 15:04N 38°42' W 009°00'1 0.5
2016-Jul-29 13:22N 38°41' W 009°01'2 0.9
2016-Jul-29 11:14N 38°41' W 009°04'  

Dump ship's entire track history